Pagina principale
METAR-TAF:

METAR-TAF

Aeroporti :

Fiume, Croazia

latitudine: 45-13N, longitudine: 014-35E, altezza: 85 m

Osservazione

Il bollettino è stato emesso 23 minuti fa, alle 23:00 UTC
Vento calmo
Temperature 23°C
Umidità 69%
Pressione 1019 hPa
Visibilità 10 km o più
nessuna nube inferiore a 1500 m e nessun cumulonembo

METAR: LDRI 192300Z 00000KT CAVOK 23/17 Q1019

Ora: 01:23 (23:23 UTC)

Previsione

Il bollettino è stato emesso 5 ore e 58 minuti fa, alle 17:25 UTC
Previsione valida dal 19 alle 18 UTC al 20 alle 18 UTC
Vento 2 kt da direzioni variabili
Visibilità 10 km o più
nessuna nube inferiore a 1500 m e nessun cumulonembo
Probabilità 40% :
Temporaneamente
dal 20 alle 10 UTC al 20 alle 15 UTC
Vento 7 kt da ovest/nord-ovest

TAF: LDRI 191725Z 1918/2018 VRB02KT CAVOK TX34/2014Z TN22/2003Z PROB40 TEMPO 2010/2015 30007KT

Osservazioni e previsioni meteorologiche di più di 4000 aeroporti (messaggi METAR e TAF).

Le stazioni disponibili sono rappresentate dai dischi gialli e rossi sulla carta.

Puntare il mouse per vedere il nome della stazione.

Clicca sopra per visualizzare le osservazioni e previsioni meteorologiche.

Per cambiare la mappa : fare clic sui pulsanti verdi con una croce nera per ingrandire, il pulsante verde con un trattino per diminuire, o sulla freccia verde per le mappe adiacenti.


METAR-TAF: